KEST

Estherville Municipal Airport

Estherville, Iowa, USA
METAR KEST 171352Z AUTO 00000KT 10SM CLR M08/M09 A3025 RMK AO2 SLP263 T10831094
Observed Flight Rules
Dec-17 @ 13:52 UTC (36 minutes ago) Visual Flight Rules
Visibility Clouds
10 miles
  • Clear skies
Temperatures Readings
Current -8°C / 18°F
Dewpoint -9°C / 16°F
Humidity 93%
Altimeter 30.25" Hg
Pressure 1026.3 hPa
Elevation 401
METAR KEST 171352Z AUTO 00000KT 10SM CLR M08/M09 A3025 RMK AO2 SLP263 T10831094
Observed Flight Rules
Dec-17 @ 13:52 UTC
(36 minutes ago)
VFR
Clouds
  • Clear skies
Temperature Dewpoint
-8°C / 18°F -9°C / 16°F
Humidity Altimeter Pressure
93% 30.25" Hg 1026.3 hPa